Hammond, Illinois
Current Conditions -  °F | °C
As of 6:54 AM on Sunday 23 Nov 2014 (Local Time) from KDEC Reporting Station
Broken Clouds Broken Clouds  
Wind Chill: 50°   Ceiling: 11000
Heat Index: 50°   Visibility: 10mi
Dew Point: 44°   Wind: 14mph
Humidity: 80%   Direction: 170°S
Pressure: 29.78"   Gusts: NA
Location:  39.8°N, 88.59°W
Report Text: KDEC 231254Z 17012KT 10SM BKN110 10/07 A2978 RMK AO2 SLP084 T01000067
Loading
Personal Weather Stations






























Interactive Weather Map New forecast layout! Learn more

10-Day Weather Forecast

Advertisements
Track Severe Weather on mobile